TNCMTAPA

Guest
Details From TNCM - St Maarten - Princess Juliana Intl
To TAPA - Antigua - V C Bird Intl
Flight Number -
Tags decoded
Created
Modified
Stats Distance 99 nm / 183 km
Max Altitude 0 ft / 0 m
Waypoints 7
Social Downloads 10
Likes 0
Share VATSIM

Download

Looking for another format? Having issues loading an existing format? Contact us
Advertisement - Login to hide

Notes

Requested: TNCM TFFJ ELOPO ANU27 ANU08 ANU04 TAPA

Route

TNCM TFFJ ELOPO ANU27 ANU08 ANU04 TAPA

ID Type Via Altitude (ft/m) Position (lat/lon) Dist (leg/tot) Name
O TNCM APT - 0 / 0 18.04089 / -63.10897 - / 0 nm St Maarten - Princess Juliana Intl
TFFJ APT - 0 / 0 17.90441 / -62.84366 17 / 17 nm St Barthelemy Is.
ELOPO FIX - 0 / 0 17.65006 / -62.55439 22 / 39 nm
ANU27 FIX - 0 / 0 17.08743 / -62.00527 46 / 85 nm
ANU08 FIX - 0 / 0 17.07783 / -61.93020 4 / 90 nm
ANU04 FIX - 0 / 0 17.10186 / -61.86519 4 / 94 nm
O TAPA APT - 0 / 0 17.13674 / -61.79266 4 / 98 nm Antigua - V C Bird Intl

Altitude Profile

Advertisement - Login to hide

TNCM

Details ICAO TNCM (SXM)
Name Princess Juliana Int'l
Region Caribbean Netherlands, Aruba, Curaçao, Sint Maarten
Timezone Unknown
Stats Elevation 12 ft / 4 m (AMSL)
Location 18.040900° -63.108900°
Runways 1
Magnetic Variation 14.344° W

METAR

TNCM 211300Z 10009KT 070V140 9999 BKN020 29/23 Q1019 NOSIG RMK A3009

Decode

TAF

TAF TNCM 211120Z 2112/2212 09008KT P6SM VCSH SCT018 SCT035 FM211400 12014KT P6SM SCT022 FM212300 08010KT P6SM SCT018 SCT050

Decode

Departure Runways

ID Width Length Bearing (true/mag) Surface Threshold Overrun Markings Lighting
10 148 ft / 45 m 7,553 ft / 2,302 m 81.44° / 95.78° ASPHALT 331 ft / 101 m 164 ft / 50 m PREC-APP EDGE THRESHOLD REIL-OMNI
28 148 ft / 45 m 7,553 ft / 2,302 m 261.45° / 275.79° ASPHALT 0 ft / 0 m 200 ft / 61 m APP EDGE THRESHOLD

TAPA

Details ICAO TAPA (ANU)
Name Antigua - VC Bird Intl
Region Antigua and Barbuda
Timezone America/Antigua (UTC-4.0)
Stats Elevation 62 ft / 19 m (AMSL)
Location 17.136000° -61.793900°
Runways 1
Magnetic Variation 14.782° W

METAR

TAPA 211300Z 10011KT 9999 BKN020 30/23 Q1018 NOSIG

Decode

TAF

Not found

Destination Runways

ID Width Length Bearing (true/mag) Surface Threshold Overrun Markings Lighting
07 145 ft / 44 m 9,978 ft / 3,041 m 58.24° / 73.02° ASPHALT 1,640 ft / 500 m 0 ft / 0 m PREC-APP CENTERLINE EDGE THRESHOLD
25 145 ft / 44 m 9,978 ft / 3,041 m 238.25° / 253.03° ASPHALT 981 ft / 299 m 0 ft / 0 m PREC-APP CENTERLINE EDGE THRESHOLD

Popular Alternatives